createdAt,value
2023-03-06T05:35:22.806Z,3.22
2023-03-06T05:38:26.119Z,3.20
2023-03-06T05:41:28.598Z,3.24
2023-03-06T05:44:33.220Z,3.39
2023-03-06T05:47:35.767Z,3.29
2023-03-06T05:50:38.481Z,3.38
2023-03-06T05:53:41.900Z,3.44
2023-03-06T05:56:44.569Z,3.39
2023-03-06T05:59:48.148Z,3.42
2023-03-06T06:02:51.331Z,3.49
2023-03-06T06:05:54.518Z,3.50
2023-03-06T06:08:57.476Z,3.44
2023-03-06T06:12:13.887Z,3.49
2023-03-06T06:15:24.442Z,3.61
2023-03-06T06:18:27.549Z,3.64
2023-03-06T06:21:30.304Z,3.68
2023-03-06T06:24:33.198Z,3.72
2023-03-06T06:27:36.031Z,3.89
2023-03-06T06:30:39.188Z,3.86
2023-03-06T06:33:42.421Z,3.93
2023-03-06T06:36:45.201Z,3.91
2023-03-06T06:39:48.277Z,3.94
2023-03-06T06:42:57.705Z,4.04
2023-03-06T06:49:22.074Z,4.08
2023-03-06T06:52:27.746Z,4.20
2023-03-06T06:55:30.386Z,4.54
2023-03-06T07:05:32.334Z,4.53
2023-03-06T07:08:34.921Z,4.57
2023-03-06T07:14:59.727Z,4.58
2023-03-06T07:18:26.548Z,4.66
2023-03-06T07:21:29.692Z,4.87
2023-03-06T07:24:34.902Z,5.08
2023-03-06T07:27:37.590Z,5.16
2023-03-06T07:30:43.873Z,5.00
2023-03-06T07:33:48.540Z,5.05
2023-03-06T07:36:51.377Z,4.85
2023-03-06T07:39:53.931Z,5.04
2023-03-06T07:43:09.241Z,5.14
2023-03-06T07:46:19.625Z,5.04
2023-03-06T07:49:22.291Z,4.98
2023-03-06T07:55:43.903Z,4.95
2023-03-06T07:58:47.009Z,4.95
2023-03-06T08:01:49.760Z,4.98
2023-03-06T08:08:13.514Z,5.12
2023-03-06T08:11:17.378Z,5.07
2023-03-06T08:14:20.264Z,5.14
2023-03-06T08:17:22.866Z,5.30
2023-03-06T08:20:26.622Z,5.28
2023-03-06T08:23:29.415Z,5.27
2023-03-06T08:26:33.345Z,5.50
2023-03-06T08:29:35.845Z,5.02
2023-03-06T08:32:38.608Z,5.22
2023-03-06T08:35:41.254Z,4.97
2023-03-06T08:38:43.747Z,5.14
2023-03-06T08:41:46.304Z,5.49
2023-03-06T08:44:51.302Z,5.25
2023-03-06T08:47:54.000Z,5.79
2023-03-06T08:51:11.057Z,5.76
2023-03-06T08:54:26.626Z,5.82
2023-03-06T08:57:36.664Z,5.93
2023-03-06T09:00:39.897Z,6.16
2023-03-06T09:03:42.944Z,6.06
2023-03-06T09:06:45.641Z,6.30
2023-03-06T09:13:04.942Z,6.30
2023-03-06T09:16:09.099Z,6.48
2023-03-06T09:19:11.815Z,6.23
2023-03-06T09:22:14.423Z,6.38
2023-03-06T09:25:20.558Z,6.39
2023-03-06T09:28:24.391Z,6.61
2023-03-06T09:31:27.095Z,6.63
2023-03-06T09:34:29.972Z,6.77
2023-03-06T09:37:32.921Z,6.66
2023-03-06T09:40:46.056Z,6.74
2023-03-06T09:43:49.345Z,6.62
2023-03-06T09:47:25.802Z,6.92
2023-03-06T09:50:38.494Z,6.88
2023-03-06T09:54:02.929Z,6.53
2023-03-06T09:57:09.510Z,6.93
2023-03-06T10:00:17.064Z,7.30
2023-03-06T10:03:25.106Z,7.37
2023-03-06T10:06:33.556Z,7.27
2023-03-06T10:09:48.188Z,7.50
2023-03-06T10:13:03.899Z,7.53
2023-03-06T10:16:25.463Z,7.50
2023-03-06T10:19:35.755Z,7.53
2023-03-06T10:23:24.274Z,7.53
2023-03-06T10:26:28.738Z,7.50
2023-03-06T10:30:01.176Z,7.82
2023-03-06T10:33:12.225Z,7.68
2023-03-06T10:36:18.782Z,7.43
2023-03-06T10:39:23.099Z,7.35
2023-03-06T10:42:27.014Z,7.34
2023-03-06T10:45:40.557Z,7.60
2023-03-06T10:48:58.487Z,7.58
2023-03-06T10:52:03.661Z,7.86
2023-03-06T10:55:30.048Z,8.09
2023-03-06T10:58:33.018Z,8.36
2023-03-06T11:01:35.790Z,7.90
2023-03-06T11:04:38.416Z,7.77
2023-03-06T11:08:02.358Z,7.83
2023-03-06T11:11:11.535Z,7.79
2023-03-06T11:14:17.091Z,7.80
2023-03-06T11:17:30.231Z,7.76
2023-03-06T11:20:52.012Z,7.92
2023-03-06T11:23:56.488Z,7.93
2023-03-06T11:27:00.860Z,7.96
2023-03-06T11:30:06.253Z,8.15
2023-03-06T11:33:11.698Z,8.21
2023-03-06T11:36:17.544Z,8.19
2023-03-06T11:39:40.859Z,8.26
2023-03-06T11:42:53.086Z,8.46
2023-03-06T11:46:12.292Z,8.45
2023-03-06T11:49:33.269Z,8.64
2023-03-06T11:52:56.254Z,8.73
2023-03-06T11:56:20.792Z,8.69
2023-03-06T11:59:34.749Z,8.69
2023-03-06T12:02:43.401Z,9.14
2023-03-06T12:05:48.182Z,9.11
2023-03-06T12:09:28.126Z,9.45
2023-03-06T12:12:42.524Z,9.35
2023-03-06T12:15:48.010Z,9.49
2023-03-06T12:18:53.434Z,9.53
2023-03-06T12:22:08.370Z,9.44
2023-03-06T12:25:21.901Z,9.67
2023-03-06T12:28:46.291Z,9.22
2023-03-06T12:32:10.531Z,9.45
2023-03-06T12:35:32.021Z,9.39
2023-03-06T12:38:47.727Z,9.57
2023-03-06T12:41:53.089Z,9.57
2023-03-06T12:45:13.806Z,9.63
2023-03-06T12:48:23.568Z,9.47
2023-03-06T12:51:26.151Z,9.63
2023-03-06T12:54:29.976Z,9.53
2023-03-06T12:57:32.521Z,9.45
2023-03-06T13:00:35.152Z,9.36
2023-03-06T13:03:56.439Z,9.33
2023-03-06T13:07:01.904Z,9.13
2023-03-06T13:10:10.266Z,9.20
2023-03-06T13:13:31.952Z,9.22
2023-03-06T13:16:34.585Z,9.24
2023-03-06T13:19:37.121Z,9.03
2023-03-06T13:22:40.641Z,9.11
2023-03-06T13:25:47.274Z,9.13
2023-03-06T13:28:50.664Z,9.22
2023-03-06T13:31:53.178Z,9.20
2023-03-06T13:34:55.684Z,9.23
2023-03-06T13:37:59.147Z,9.21
2023-03-06T13:41:23.600Z,9.12
2023-03-06T13:44:26.070Z,9.26
2023-03-06T13:47:39.707Z,9.28
2023-03-06T13:50:51.645Z,9.06
2023-03-06T13:54:32.917Z,8.67
2023-03-06T13:57:58.255Z,8.62
2023-03-06T14:01:07.156Z,8.57
2023-03-06T14:04:15.676Z,8.59
2023-03-06T14:07:28.240Z,8.70
2023-03-06T14:10:31.699Z,8.68
2023-03-06T14:13:45.448Z,8.62
2023-03-06T14:16:50.666Z,8.62
2023-03-06T14:19:53.939Z,8.50
2023-03-06T14:23:14.723Z,8.54
2023-03-06T14:26:24.516Z,8.73
2023-03-06T14:29:28.694Z,8.57
2023-03-06T14:32:31.271Z,8.39
2023-03-06T14:35:34.576Z,8.44
2023-03-06T14:38:42.669Z,8.51
2023-03-06T14:41:45.206Z,8.55
2023-03-06T14:44:48.800Z,8.55
2023-03-06T14:47:52.244Z,8.54
2023-03-06T14:50:55.989Z,8.60
2023-03-06T14:54:07.055Z,8.68
2023-03-06T14:57:14.013Z,8.97
2023-03-06T15:00:19.739Z,8.82
2023-03-06T15:03:33.810Z,8.69
2023-03-06T15:06:39.697Z,8.67
2023-03-06T15:09:45.348Z,8.68
2023-03-06T15:12:47.996Z,8.49
2023-03-06T15:15:58.910Z,8.35
2023-03-06T15:19:02.345Z,8.33
2023-03-06T15:22:04.943Z,8.28
2023-03-06T15:25:16.248Z,8.31
2023-03-06T15:28:38.700Z,8.17
2023-03-06T15:31:42.284Z,8.23
2023-03-06T15:34:44.895Z,7.95
2023-03-06T15:37:47.375Z,7.88
2023-03-06T15:40:57.291Z,7.88
2023-03-06T15:44:00.773Z,7.83
2023-03-06T15:47:08.642Z,8.01
2023-03-06T15:50:24.477Z,7.75
2023-03-06T15:53:27.088Z,7.73
2023-03-06T15:56:30.700Z,7.54
2023-03-06T15:59:33.619Z,7.70
